首页
METAR-TAF:

METAR-TAF

机场 :

特雷維索, 意大利

纬度: 45-41N, 经度: 012-06E, 海拔: 45米

当前天气观测

该预报发布于1小时和9分钟前的01:55 UTC
温度 2°C
湿度 100%
气压 1023 hPa
能见度10公里或以上
1500米以下无云,无积雨云

METAR: LIPS 210155Z /////KT CAVOK 02/02 Q1023 RMK SKC VIS MIN 9999 WIND THR26 36003KT WIND THR08 03004KT BLU

时间: 04:04 (03:04 UTC)

预报

该预报发布于1小时和4分钟前的02:00 UTC
预报有效从21日的 03点(UTC)到 21日的 12点(UTC)
风速3节,风向多变
能见度10公里或以上
1500米以下无云,无积雨云
几率 30% :
短暂存在
从 21日的 04点(UTC)到 21日的 07点(UTC)
能見度: 5000
轻雾

TAF: LIPS 210200Z 2103/2112 VRB03KT CAVOK PROB30 TEMPO 2104/2107 5000 BR NSC

超过4000个机场的气象观测和天气预报(METAR&TAF报告)。

可查询的气象台以黄色和红色小点在地图上表示。

将鼠标移到小点上方,可查看气象台名称。

然后点击查看天气观测和预报。

如需切换地图:点击带黑十字的绿色按钮放大地图;点击带横线的绿色按钮缩小地图;或者点击绿色箭头查看邻近地区的地图。


METAR-TAF: